Portada
METAR-TAF:

METAR-TAF

Aeroports :

Clarmont d'Alvèrnia, França

latitud: 45-47N, longitud: 003-10E, altitud: 332 m

Observació

L'informe es va fer fa 14 hores i 51 minuts, a les 05:00 UTC
Vent 3 kt del Est/Sud-Est
Temperatura 16°C
Humitat 82%
Pressió 1020 hPa
Visibilitat 10 km o més
Escasses núvols a una alçada de 100 ft

METAR: LFLC 210500Z AUTO 12003KT 9999 FEW001 16/13 Q1020 NOSIG

Hora: 21:51 (19:51 UTC)

Pronòstic

L'informe es va fer fa 17 hores i 51 minuts, a les 02:00 UTC
Pronòstic vàlid del 21 a les 03 UTC al 22 a les 03 UTC
Vent 5 kt amb direcció variable
Visibilitat 10 km o més
sense núvols per sota de 1500 mi sense presència de cumulonimbus.
Probabilitat 30% :
Temporalment
l' 21 a les 12 UTC al 21 a les 18 UTC
Escasses núvols a una alçada de 8000 ft, Cumulonimbus.

TAF: LFLC 210200Z 2103/2203 VRB05KT CAVOK PROB30 TEMPO 2112/2118 FEW080CB

Observacions i pronòstics meteorològics de més de 4000 aeroports (METAR i TAF).

Les estacions disponibles són els punts grocs i vermells al mapa.

Posi el ratolí al punt desitjat per veure el nom de l'estació.

Feu clic per veure les observacions i els pronòstics meteorològics.

Per canviar el mapa: feu clic els botons verds amb una creu de color negre per apropar; al botó verd amb un guió per allunyar la imatge; o en les fletxes verdes per a mapes adjacents.


METAR-TAF: